Time;durP1;ratioP1;P1;durP2;ratioP2;P2;SDS_P1;SDS_P2;PMS_P1;PMS_P2;Temp;Humidity;BMP_temperature;BMP_pressure;BME280_temperature;BME280_humidity;BME280_pressure;Samples;Min_cycle;Max_cycle;Signal;HPM_P1;HPM_P2
2023/12/13 00:00:30;;;;;;;2.40;0.30;;;;;;;;;;5113820;28;20470;-55
2023/12/13 00:02:58;;;;;;;0.10;0.10;;;;;;;;;;5116929;28;20077;-55
2023/12/13 00:05:24;;;;;;;0.35;0.13;;;;;;;;;;5118298;28;20040;-56
2023/12/13 00:07:50;;;;;;;1.23;0.30;;;;;;;;;;5118905;28;20027;-56
2023/12/13 00:10:16;;;;;;;0.45;0.20;;;;;;;;;;5119044;28;20060;-55
2023/12/13 00:12:42;;;;;;;1.05;0.47;;;;;;;;;;5118715;28;20028;-55
2023/12/13 00:15:08;;;;;;;0.90;0.35;;;;;;;;;;5118696;28;20053;-55
2023/12/13 00:17:34;;;;;;;2.63;0.40;;;;;;;;;;5118441;28;20028;-56
2023/12/13 00:20:00;;;;;;;1.25;0.60;;;;;;;;;;5118309;28;20030;-52
2023/12/13 00:22:26;;;;;;;1.75;0.77;;;;;;;;;;5118037;28;20482;-55
2023/12/13 00:24:52;;;;;;;1.52;0.50;;;;;;;;;;5118187;28;20039;-54
2023/12/13 00:27:17;;;;;;;1.15;0.47;;;;;;;;;;5118510;28;20028;-55
2023/12/13 00:29:43;;;;;;;0.60;0.25;;;;;;;;;;5118426;28;20031;-52
2023/12/13 00:32:10;;;;;;;0.70;0.38;;;;;;;;;;5118433;28;20027;-54
2023/12/13 00:34:36;;;;;;;0.68;0.30;;;;;;;;;;5117797;28;20031;-54
2023/12/13 00:37:01;;;;;;;0.70;0.30;;;;;;;;;;5118354;28;20080;-56
2023/12/13 00:39:27;;;;;;;1.30;0.60;;;;;;;;;;5118001;28;20028;-53
2023/12/13 00:41:53;;;;;;;1.50;0.90;;;;;;;;;;5118185;28;20034;-56
2023/12/13 00:44:19;;;;;;;1.35;0.55;;;;;;;;;;5117979;28;20516;-55
2023/12/13 00:46:45;;;;;;;0.57;0.28;;;;;;;;;;5117888;28;20102;-54
2023/12/13 00:49:11;;;;;;;1.00;0.50;;;;;;;;;;5117884;28;20026;-55
2023/12/13 00:51:37;;;;;;;3.40;0.50;;;;;;;;;;5117451;28;20031;-55
2023/12/13 00:54:03;;;;;;;0.75;0.30;;;;;;;;;;5117355;28;20140;-55
2023/12/13 00:56:30;;;;;;;0.95;0.40;;;;;;;;;;5118068;28;20054;-54
2023/12/13 00:58:56;;;;;;;2.13;0.57;;;;;;;;;;5117855;28;20035;-53
2023/12/13 01:01:23;;;;;;;1.33;0.63;;;;;;;;;;5117332;28;20024;-53
2023/12/13 01:03:49;;;;;;;0.95;0.43;;;;;;;;;;5117215;28;20499;-55
2023/12/13 01:06:15;;;;;;;5.50;0.47;;;;;;;;;;5117200;28;20027;-51
2023/12/13 01:08:41;;;;;;;0.47;0.22;;;;;;;;;;5118057;28;20035;-53
2023/12/13 01:11:08;;;;;;;1.58;0.30;;;;;;;;;;5117092;28;20054;-56
2023/12/13 01:13:34;;;;;;;0.52;0.30;;;;;;;;;;5115903;28;20441;-51
2023/12/13 01:16:01;;;;;;;0.70;0.32;;;;;;;;;;5117064;28;20028;-54
2023/12/13 01:18:27;;;;;;;1.25;0.38;;;;;;;;;;5117006;28;20099;-52
2023/12/13 01:20:53;;;;;;;1.02;0.47;;;;;;;;;;5116991;28;20035;-53
2023/12/13 01:23:18;;;;;;;1.95;0.68;;;;;;;;;;5117454;28;20024;-53
2023/12/13 01:25:44;;;;;;;0.70;0.30;;;;;;;;;;5116758;28;20023;-53
2023/12/13 01:28:10;;;;;;;1.35;0.63;;;;;;;;;;5117400;28;20034;-55
2023/12/13 01:30:36;;;;;;;0.47;0.20;;;;;;;;;;5117284;28;20024;-52
2023/12/13 01:33:02;;;;;;;0.60;0.38;;;;;;;;;;5116755;28;20024;-50
2023/12/13 01:35:28;;;;;;;1.08;0.30;;;;;;;;;;5117175;28;20023;-51
2023/12/13 01:37:54;;;;;;;0.75;0.30;;;;;;;;;;5117147;28;20031;-52
2023/12/13 01:40:20;;;;;;;0.73;0.25;;;;;;;;;;5116598;28;20373;-55
2023/12/13 01:42:46;;;;;;;1.25;0.50;;;;;;;;;;5117047;28;20028;-54
2023/12/13 01:45:12;;;;;;;3.20;0.25;;;;;;;;;;5116702;28;20024;-55
2023/12/13 01:47:38;;;;;;;1.63;0.35;;;;;;;;;;5116958;28;20027;-52
2023/12/13 01:50:05;;;;;;;0.95;0.38;;;;;;;;;;5116362;28;20043;-53
2023/12/13 01:52:31;;;;;;;0.77;0.40;;;;;;;;;;5116594;28;20023;-52
2023/12/13 01:54:57;;;;;;;0.25;0.10;;;;;;;;;;5116254;28;20063;-53
2023/12/13 01:57:23;;;;;;;0.50;0.20;;;;;;;;;;5117473;28;20039;-54
2023/12/13 01:59:49;;;;;;;1.17;0.47;;;;;;;;;;5116163;28;20374;-54
2023/12/13 02:02:15;;;;;;;0.25;0.15;;;;;;;;;;5116679;28;20406;-53
2023/12/13 02:04:41;;;;;;;1.00;0.38;;;;;;;;;;5116081;28;20074;-53
2023/12/13 02:07:07;;;;;;;7.88;0.70;;;;;;;;;;5116614;28;20024;-49
2023/12/13 02:09:33;;;;;;;0.93;0.25;;;;;;;;;;5116064;28;20050;-52
2023/12/13 02:11:59;;;;;;;1.38;0.43;;;;;;;;;;5115950;28;20023;-55
2023/12/13 02:14:25;;;;;;;2.22;0.57;;;;;;;;;;5116660;28;20024;-55
2023/12/13 02:16:53;;;;;;;0.30;0.30;;;;;;;;;;5116348;28;20023;-55
2023/12/13 02:19:19;;;;;;;2.20;0.43;;;;;;;;;;5115824;28;20085;-50
2023/12/13 02:21:45;;;;;;;0.22;0.13;;;;;;;;;;5116304;28;20032;-54
2023/12/13 02:24:11;;;;;;;1.00;0.43;;;;;;;;;;5115680;28;20029;-55
2023/12/13 02:26:42;;;;;;;1.35;0.55;;;;;;;;;;5115003;28;20461;-52
2023/12/13 02:29:08;;;;;;;0.40;0.20;;;;;;;;;;5097854;28;20385;-55
2023/12/13 02:31:35;;;;;;;0.68;0.40;;;;;;;;;;5115509;28;20019;-51
2023/12/13 02:34:01;;;;;;;0.50;0.20;;;;;;;;;;5115536;28;20019;-53
2023/12/13 02:36:27;;;;;;;0.68;0.20;;;;;;;;;;5116003;28;20028;-51
2023/12/13 02:38:53;;;;;;;3.15;0.68;;;;;;;;;;5116106;28;20027;-55
2023/12/13 02:41:19;;;;;;;1.60;0.98;;;;;;;;;;5115382;28;20068;-52
2023/12/13 02:43:45;;;;;;;2.78;0.43;;;;;;;;;;5115330;28;20098;-52
2023/12/13 02:46:14;;;;;;;0.82;0.25;;;;;;;;;;5115184;28;20032;-53
2023/12/13 02:48:40;;;;;;;0.50;0.30;;;;;;;;;;5116149;28;20038;-55
2023/12/13 02:51:07;;;;;;;0.75;0.52;;;;;;;;;;5114868;28;20016;-55
2023/12/13 02:53:33;;;;;;;0.47;0.20;;;;;;;;;;5115184;28;20485;-52
2023/12/13 02:55:59;;;;;;;6.40;0.60;;;;;;;;;;5115067;28;20051;-50
2023/12/13 02:58:25;;;;;;;0.98;0.35;;;;;;;;;;5115030;28;20024;-54
2023/12/13 03:00:53;;;;;;;0.47;0.30;;;;;;;;;;5115541;28;20043;-52
2023/12/13 03:03:19;;;;;;;4.03;0.52;;;;;;;;;;5114921;28;20059;-52
2023/12/13 03:05:45;;;;;;;3.15;0.40;;;;;;;;;;5114830;28;20461;-52
2023/12/13 03:08:11;;;;;;;2.22;0.70;;;;;;;;;;5115127;28;20046;-55
2023/12/13 03:10:36;;;;;;;1.48;0.40;;;;;;;;;;5114854;28;20114;-55
2023/12/13 03:13:02;;;;;;;2.28;0.45;;;;;;;;;;5115332;28;20091;-54
2023/12/13 03:15:28;;;;;;;1.45;0.40;;;;;;;;;;5114737;28;20039;-53
2023/12/13 03:17:54;;;;;;;1.02;0.47;;;;;;;;;;5115279;28;20051;-56
2023/12/13 03:20:20;;;;;;;3.38;0.70;;;;;;;;;;5115017;28;20106;-55
2023/12/13 03:22:46;;;;;;;3.67;0.52;;;;;;;;;;5115062;28;20052;-49
2023/12/13 03:25:12;;;;;;;0.38;0.20;;;;;;;;;;5114422;28;20059;-52
2023/12/13 03:27:42;;;;;;;0.40;0.20;;;;;;;;;;5114468;28;20024;-52
2023/12/13 03:30:09;;;;;;;0.98;0.43;;;;;;;;;;5115346;28;20111;-49
2023/12/13 03:32:35;;;;;;;1.58;0.30;;;;;;;;;;5114431;28;20034;-50
2023/12/13 03:35:01;;;;;;;1.88;0.30;;;;;;;;;;5114183;28;20031;-52
2023/12/13 03:37:28;;;;;;;0.30;0.10;;;;;;;;;;5113856;28;20020;-51
2023/12/13 03:39:54;;;;;;;1.38;0.35;;;;;;;;;;5114825;28;20039;-52
2023/12/13 03:42:20;;;;;;;1.00;0.20;;;;;;;;;;5114865;28;20016;-52
2023/12/13 03:44:46;;;;;;;1.38;0.32;;;;;;;;;;5114216;28;20461;-51
2023/12/13 03:47:12;;;;;;;0.35;0.17;;;;;;;;;;5114285;28;20114;-49
2023/12/13 03:49:38;;;;;;;0.93;0.30;;;;;;;;;;5114241;28;20027;-52
2023/12/13 03:52:04;;;;;;;0.52;0.22;;;;;;;;;;5114514;28;20019;-49
2023/12/13 03:54:30;;;;;;;0.77;0.30;;;;;;;;;;5114100;28;20027;-53
2023/12/13 03:56:55;;;;;;;1.30;0.50;;;;;;;;;;5113823;28;20059;-52
2023/12/13 03:59:21;;;;;;;0.52;0.30;;;;;;;;;;5114589;28;20027;-49
2023/12/13 04:01:47;;;;;;;1.30;0.43;;;;;;;;;;5114672;28;20062;-50
2023/12/13 04:04:13;;;;;;;0.75;0.30;;;;;;;;;;5113707;28;20035;-52
2023/12/13 04:06:39;;;;;;;1.02;0.50;;;;;;;;;;5114480;28;20364;-51
2023/12/13 04:09:05;;;;;;;0.40;0.20;;;;;;;;;;5114411;28;20407;-53
2023/12/13 04:11:31;;;;;;;0.38;0.20;;;;;;;;;;5114541;28;20480;-54
2023/12/13 04:13:57;;;;;;;1.48;0.30;;;;;;;;;;5114028;28;20027;-52
2023/12/13 04:16:23;;;;;;;1.25;0.43;;;;;;;;;;5113973;28;20023;-49
2023/12/13 04:18:49;;;;;;;0.57;0.25;;;;;;;;;;5114580;28;20018;-50
2023/12/13 04:21:15;;;;;;;0.68;0.35;;;;;;;;;;5114480;28;20046;-52
2023/12/13 04:23:41;;;;;;;5.03;0.85;;;;;;;;;;5113955;28;20020;-51
2023/12/13 04:26:07;;;;;;;4.38;0.75;;;;;;;;;;5113541;28;20032;-50
2023/12/13 04:28:33;;;;;;;2.40;0.85;;;;;;;;;;5113746;28;20030;-51
2023/12/13 04:30:59;;;;;;;1.05;0.50;;;;;;;;;;5113900;28;20098;-50
2023/12/13 04:33:25;;;;;;;1.83;0.57;;;;;;;;;;5114157;28;20457;-54
2023/12/13 04:35:55;;;;;;;0.65;0.30;;;;;;;;;;5113819;28;20034;-50
2023/12/13 04:38:21;;;;;;;1.00;0.60;;;;;;;;;;5114110;28;20023;-53
2023/12/13 04:40:47;;;;;;;0.50;0.20;;;;;;;;;;5114331;28;20356;-51
2023/12/13 04:43:13;;;;;;;0.57;0.30;;;;;;;;;;5113743;28;20020;-49
2023/12/13 04:45:39;;;;;;;2.20;0.47;;;;;;;;;;5114129;28;20031;-52
2023/12/13 04:48:05;;;;;;;3.70;0.60;;;;;;;;;;5115354;28;20455;-52
2023/12/13 04:50:31;;;;;;;0.28;0.20;;;;;;;;;;5118420;28;20355;-52
2023/12/13 04:52:58;;;;;;;1.05;0.40;;;;;;;;;;5117572;28;20039;-53
2023/12/13 04:55:24;;;;;;;1.20;0.30;;;;;;;;;;5117790;28;20035;-51
2023/12/13 04:57:50;;;;;;;4.82;0.77;;;;;;;;;;5117341;28;20411;-50
2023/12/13 05:00:16;;;;;;;1.33;0.22;;;;;;;;;;5117421;28;20027;-50
2023/12/13 05:02:42;;;;;;;3.75;0.40;;;;;;;;;;5117467;28;20373;-51
2023/12/13 05:05:08;;;;;;;0.52;0.30;;;;;;;;;;5118009;28;20024;-53
2023/12/13 05:07:34;;;;;;;0.63;0.35;;;;;;;;;;5117373;28;20422;-52
2023/12/13 05:10:00;;;;;;;0.75;0.30;;;;;;;;;;5117191;28;20111;-49
2023/12/13 05:12:26;;;;;;;2.45;0.35;;;;;;;;;;5116921;28;20027;-52
2023/12/13 05:14:51;;;;;;;0.20;0.10;;;;;;;;;;5117510;28;20031;-50
2023/12/13 05:17:17;;;;;;;0.43;0.20;;;;;;;;;;5117446;28;20027;-50
2023/12/13 05:19:43;;;;;;;2.28;0.50;;;;;;;;;;5117384;28;20027;-52
2023/12/13 05:22:09;;;;;;;0.73;0.30;;;;;;;;;;5117366;28;20093;-52
2023/12/13 05:24:36;;;;;;;0.50;0.20;;;;;;;;;;5117460;28;20050;-52
2023/12/13 05:27:02;;;;;;;1.35;0.47;;;;;;;;;;5117484;28;20023;-50
2023/12/13 05:29:28;;;;;;;2.15;0.50;;;;;;;;;;5117201;28;20145;-50
2023/12/13 05:31:54;;;;;;;2.63;0.55;;;;;;;;;;5116380;28;20054;-52
2023/12/13 05:34:20;;;;;;;0.82;0.40;;;;;;;;;;5116651;28;20072;-52
2023/12/13 05:36:46;;;;;;;2.22;0.75;;;;;;;;;;5116884;28;20516;-51
2023/12/13 05:39:11;;;;;;;1.42;0.40;;;;;;;;;;5117092;28;20062;-53
2023/12/13 05:41:37;;;;;;;0.40;0.30;;;;;;;;;;5116957;28;20027;-54
2023/12/13 05:44:03;;;;;;;2.05;0.73;;;;;;;;;;5116570;28;20080;-55
2023/12/13 05:46:33;;;;;;;0.60;0.30;;;;;;;;;;5116352;28;20537;-54
2023/12/13 05:49:01;;;;;;;0.60;0.30;;;;;;;;;;5116827;28;20026;-56
2023/12/13 05:51:27;;;;;;;0.88;0.32;;;;;;;;;;5116390;28;20027;-56
2023/12/13 05:53:53;;;;;;;1.75;0.38;;;;;;;;;;5116508;28;20114;-54
2023/12/13 05:56:18;;;;;;;0.65;0.30;;;;;;;;;;5116082;28;20047;-56
2023/12/13 05:58:44;;;;;;;0.70;0.50;;;;;;;;;;5116306;28;20027;-55
2023/12/13 06:01:10;;;;;;;0.77;0.40;;;;;;;;;;5116454;28;20016;-50
2023/12/13 06:03:36;;;;;;;2.10;0.43;;;;;;;;;;5115912;28;20020;-54
2023/12/13 06:06:04;;;;;;;0.30;0.17;;;;;;;;;;5116368;28;20035;-53
2023/12/13 06:08:30;;;;;;;0.32;0.10;;;;;;;;;;5116633;28;20110;-53
2023/12/13 06:10:58;;;;;;;1.20;0.43;;;;;;;;;;5115762;28;20058;-53
2023/12/13 06:13:24;;;;;;;0.90;0.40;;;;;;;;;;5116554;28;20055;-52
2023/12/13 06:15:50;;;;;;;3.08;0.35;;;;;;;;;;5115984;28;20058;-56
2023/12/13 06:18:16;;;;;;;1.25;0.45;;;;;;;;;;5115948;28;20030;-55
2023/12/13 06:20:42;;;;;;;1.15;0.52;;;;;;;;;;5116635;28;20024;-52
2023/12/13 06:23:08;;;;;;;1.23;0.52;;;;;;;;;;5115564;28;20048;-56
2023/12/13 06:25:34;;;;;;;0.88;0.40;;;;;;;;;;5115884;28;20031;-55
2023/12/13 06:28:00;;;;;;;0.38;0.20;;;;;;;;;;5116017;28;20494;-54
2023/12/13 06:30:26;;;;;;;1.23;0.50;;;;;;;;;;5115662;28;20097;-55
2023/12/13 06:32:52;;;;;;;0.20;0.20;;;;;;;;;;5116426;28;20112;-54
2023/12/13 06:35:18;;;;;;;0.50;0.30;;;;;;;;;;5115606;28;20105;-54
2023/12/13 06:37:44;;;;;;;0.90;0.40;;;;;;;;;;5115898;28;20350;-54
2023/12/13 06:40:10;;;;;;;0.70;0.40;;;;;;;;;;5115763;28;20026;-58
2023/12/13 06:42:36;;;;;;;0.95;0.47;;;;;;;;;;5116205;28;20025;-58
2023/12/13 06:45:04;;;;;;;1.13;0.45;;;;;;;;;;5114724;28;20522;-57
2023/12/13 06:47:29;;;;;;;1.70;0.75;;;;;;;;;;5115283;28;20512;-58
2023/12/13 06:49:55;;;;;;;0.40;0.20;;;;;;;;;;5115301;28;20051;-58
2023/12/13 06:52:21;;;;;;;0.95;0.40;;;;;;;;;;5115124;28;20024;-58
2023/12/13 06:54:47;;;;;;;2.30;0.77;;;;;;;;;;5097161;28;20019;-58
2023/12/13 06:57:13;;;;;;;1.15;0.40;;;;;;;;;;5115915;28;20401;-58
2023/12/13 06:59:39;;;;;;;0.82;0.35;;;;;;;;;;5115199;28;20058;-58
2023/12/13 07:02:05;;;;;;;1.02;0.25;;;;;;;;;;5115078;28;20036;-58
2023/12/13 07:04:31;;;;;;;0.90;0.50;;;;;;;;;;5114908;28;20023;-58
2023/12/13 07:06:58;;;;;;;1.10;0.40;;;;;;;;;;5114952;28;20035;-58
2023/12/13 07:09:24;;;;;;;2.75;0.80;;;;;;;;;;5115344;28;20088;-58
2023/12/13 07:11:50;;;;;;;1.25;0.60;;;;;;;;;;5114230;28;20024;-57
2023/12/13 07:14:16;;;;;;;2.47;0.60;;;;;;;;;;5114449;28;20027;-58
2023/12/13 07:16:43;;;;;;;3.10;0.30;;;;;;;;;;5114784;28;20363;-58
2023/12/13 07:19:09;;;;;;;1.27;0.40;;;;;;;;;;5115322;28;20365;-58
2023/12/13 07:21:35;;;;;;;1.83;0.40;;;;;;;;;;5114693;28;20023;-57
2023/12/13 07:24:01;;;;;;;1.20;0.68;;;;;;;;;;5115156;28;20511;-58
2023/12/13 07:26:27;;;;;;;4.22;0.40;;;;;;;;;;5114529;28;20027;-57
2023/12/13 07:28:52;;;;;;;2.60;0.40;;;;;;;;;;5114865;28;20047;-57
2023/12/13 07:31:18;;;;;;;3.78;0.90;;;;;;;;;;5114752;28;20350;-58
2023/12/13 07:33:45;;;;;;;1.20;0.50;;;;;;;;;;5114816;28;20444;-58
2023/12/13 07:36:12;;;;;;;2.30;0.75;;;;;;;;;;5114505;28;20118;-58
2023/12/13 07:38:41;;;;;;;2.50;0.77;;;;;;;;;;5114691;28;20529;-57
2023/12/13 07:41:07;;;;;;;1.33;0.50;;;;;;;;;;5114357;28;20449;-58
2023/12/13 07:43:33;;;;;;;4.00;0.47;;;;;;;;;;5114331;28;20023;-58
2023/12/13 07:45:58;;;;;;;1.08;0.60;;;;;;;;;;5114147;28;20366;-58
2023/12/13 07:48:24;;;;;;;1.17;0.40;;;;;;;;;;5114877;28;20028;-58
2023/12/13 07:50:53;;;;;;;1.75;0.55;;;;;;;;;;5114304;28;20055;-58
2023/12/13 07:53:19;;;;;;;4.60;1.15;;;;;;;;;;5114736;28;20024;-58
2023/12/13 07:55:45;;;;;;;1.98;0.47;;;;;;;;;;5114194;28;20070;-57
2023/12/13 07:58:11;;;;;;;1.83;0.73;;;;;;;;;;5115000;28;20027;-58
2023/12/13 08:00:37;;;;;;;2.45;0.55;;;;;;;;;;5114104;28;20026;-58
2023/12/13 08:03:04;;;;;;;1.63;0.60;;;;;;;;;;5114080;28;20024;-57
2023/12/13 08:05:30;;;;;;;0.47;0.30;;;;;;;;;;5114376;28;20050;-58
2023/12/13 08:07:56;;;;;;;1.25;0.30;;;;;;;;;;5114755;28;20058;-57
2023/12/13 08:10:22;;;;;;;0.57;0.30;;;;;;;;;;5114655;28;20020;-58
2023/12/13 08:12:48;;;;;;;0.90;0.40;;;;;;;;;;5114286;28;20016;-58
2023/12/13 08:15:14;;;;;;;0.82;0.50;;;;;;;;;;5113984;28;20165;-58
2023/12/13 08:17:40;;;;;;;0.82;0.50;;;;;;;;;;5114634;28;20023;-57
2023/12/13 08:20:06;;;;;;;0.80;0.32;;;;;;;;;;5114586;28;20035;-58
2023/12/13 08:22:32;;;;;;;2.45;0.47;;;;;;;;;;5114206;28;20053;-58
2023/12/13 08:24:58;;;;;;;0.80;0.40;;;;;;;;;;5118034;28;20032;-58
2023/12/13 08:27:24;;;;;;;1.08;0.70;;;;;;;;;;5118104;28;20423;-58
2023/12/13 08:29:50;;;;;;;0.85;0.30;;;;;;;;;;5118027;28;20027;-58
2023/12/13 08:32:16;;;;;;;0.80;0.30;;;;;;;;;;5117903;28;20031;-58
2023/12/13 08:34:42;;;;;;;0.98;0.45;;;;;;;;;;5117896;28;20540;-58
2023/12/13 08:37:08;;;;;;;3.38;0.70;;;;;;;;;;5118229;28;20016;-58
2023/12/13 08:39:34;;;;;;;4.38;1.05;;;;;;;;;;5117532;28;20023;-58
2023/12/13 08:42:00;;;;;;;1.15;0.60;;;;;;;;;;5118325;28;20104;-56
2023/12/13 08:44:27;;;;;;;1.63;0.50;;;;;;;;;;5117654;28;20028;-57
2023/12/13 08:46:53;;;;;;;2.83;0.82;;;;;;;;;;5117547;28;20039;-58
2023/12/13 08:49:19;;;;;;;1.63;0.60;;;;;;;;;;5118191;28;20472;-58
2023/12/13 08:51:46;;;;;;;2.88;0.57;;;;;;;;;;5117619;28;20028;-58
2023/12/13 08:54:12;;;;;;;1.95;0.73;;;;;;;;;;5117434;28;20038;-58
2023/12/13 08:56:38;;;;;;;1.70;0.75;;;;;;;;;;5117624;28;20054;-58
2023/12/13 08:59:04;;;;;;;1.50;0.70;;;;;;;;;;5117118;28;20042;-58
2023/12/13 09:01:30;;;;;;;1.25;0.80;;;;;;;;;;5117262;28;20020;-58
2023/12/13 09:03:56;;;;;;;5.18;1.35;;;;;;;;;;5117189;28;20024;-58
2023/12/13 09:06:22;;;;;;;1.25;0.63;;;;;;;;;;5117201;28;20475;-58
2023/12/13 09:08:48;;;;;;;3.45;0.98;;;;;;;;;;5117714;28;20020;-58
2023/12/13 09:11:14;;;;;;;4.25;1.27;;;;;;;;;;5117216;28;20051;-58
2023/12/13 09:13:40;;;;;;;5.00;1.20;;;;;;;;;;5117963;28;20409;-61
2023/12/13 09:16:06;;;;;;;2.05;1.05;;;;;;;;;;5117142;28;20122;-59
2023/12/13 09:18:32;;;;;;;2.80;0.90;;;;;;;;;;5117437;28;20031;-59
2023/12/13 09:20:58;;;;;;;1.17;0.63;;;;;;;;;;5117468;28;20422;-59
2023/12/13 09:23:27;;;;;;;4.78;1.23;;;;;;;;;;5117387;28;20450;-59
2023/12/13 09:25:54;;;;;;;2.10;0.95;;;;;;;;;;5116752;28;20039;-61
2023/12/13 09:28:20;;;;;;;2.50;0.73;;;;;;;;;;5117032;28;20028;-58
2023/12/13 09:30:46;;;;;;;1.63;0.88;;;;;;;;;;5116538;28;20023;-57
2023/12/13 09:33:13;;;;;;;3.20;1.20;;;;;;;;;;5116327;28;20031;-59
2023/12/13 09:35:39;;;;;;;4.32;1.10;;;;;;;;;;5115611;28;20035;-58
2023/12/13 09:38:05;;;;;;;4.05;1.17;;;;;;;;;;5116706;28;20035;-58
2023/12/13 09:40:31;;;;;;;2.47;1.02;;;;;;;;;;5116594;28;20026;-59
2023/12/13 09:42:57;;;;;;;2.40;1.23;;;;;;;;;;5116556;28;20034;-59
2023/12/13 09:45:23;;;;;;;2.40;1.15;;;;;;;;;;5116207;28;20039;-59
2023/12/13 09:47:51;;;;;;;8.55;1.23;;;;;;;;;;5117146;28;20362;-59
2023/12/13 09:50:17;;;;;;;2.33;0.90;;;;;;;;;;5116453;28;20023;-59
2023/12/13 09:52:43;;;;;;;3.00;1.45;;;;;;;;;;5116380;28;20115;-59
2023/12/13 09:55:11;;;;;;;4.40;1.45;;;;;;;;;;5116605;28;20145;-59
2023/12/13 09:57:37;;;;;;;1.90;0.85;;;;;;;;;;5117082;28;20076;-59
2023/12/13 10:00:03;;;;;;;4.60;1.63;;;;;;;;;;5116363;28;20468;-59
2023/12/13 10:02:29;;;;;;;2.53;1.10;;;;;;;;;;5116201;28;20024;-58
2023/12/13 10:04:59;;;;;;;3.10;1.42;;;;;;;;;;5116023;28;20026;-58
2023/12/13 10:07:25;;;;;;;1.98;1.05;;;;;;;;;;5116056;28;20024;-59
2023/12/13 10:09:51;;;;;;;2.05;0.77;;;;;;;;;;5116036;28;20518;-59
2023/12/13 10:12:17;;;;;;;1.45;0.60;;;;;;;;;;5116105;28;20019;-58
2023/12/13 10:14:43;;;;;;;1.30;0.80;;;;;;;;;;5116171;28;20024;-59
2023/12/13 10:17:09;;;;;;;2.67;1.00;;;;;;;;;;5116217;28;20059;-59
2023/12/13 10:19:35;;;;;;;2.38;1.17;;;;;;;;;;5115589;28;20046;-59
2023/12/13 10:22:05;;;;;;;4.78;1.35;;;;;;;;;;5116395;28;20031;-59
2023/12/13 10:24:31;;;;;;;2.78;1.20;;;;;;;;;;5115818;28;20040;-57
2023/12/13 10:26:58;;;;;;;2.63;1.20;;;;;;;;;;5116274;28;20414;-59
2023/12/13 10:29:24;;;;;;;2.72;1.65;;;;;;;;;;5115661;28;20453;-59
2023/12/13 10:31:49;;;;;;;1.38;0.75;;;;;;;;;;5115589;28;20016;-58
2023/12/13 10:34:16;;;;;;;3.40;1.05;;;;;;;;;;5115907;28;20019;-59
2023/12/13 10:36:43;;;;;;;1.98;1.20;;;;;;;;;;5116089;28;20394;-59
2023/12/13 10:39:11;;;;;;;2.85;1.20;;;;;;;;;;5116341;28;20019;-58
2023/12/13 10:41:37;;;;;;;2.30;1.17;;;;;;;;;;5115668;28;20130;-59
2023/12/13 10:44:04;;;;;;;3.35;1.27;;;;;;;;;;5115363;28;20030;-59
2023/12/13 10:46:37;;;;;;;3.78;1.50;;;;;;;;;;5115922;28;20028;-59
2023/12/13 10:49:06;;;;;;;4.55;1.42;;;;;;;;;;5115888;28;20070;-59
2023/12/13 10:51:33;;;;;;;1.85;0.90;;;;;;;;;;5115080;28;20421;-60
2023/12/13 10:53:59;;;;;;;4.03;1.10;;;;;;;;;;5115004;28;20032;-59
2023/12/13 10:56:25;;;;;;;3.28;1.50;;;;;;;;;;5114954;28;20420;-58
2023/12/13 10:58:52;;;;;;;1.80;1.00;;;;;;;;;;5115123;28;20049;-58
2023/12/13 11:01:18;;;;;;;4.60;1.92;;;;;;;;;;5114978;28;20027;-57
2023/12/13 11:04:05;;;;;;;6.70;1.60;;;;;;;;;;5115399;28;20106;-57
2023/12/13 11:06:32;;;;;;;1.35;0.73;;;;;;;;;;5114883;28;20461;-59
2023/12/13 11:09:08;;;;;;;2.45;1.05;;;;;;;;;;5115243;28;20055;-59
2023/12/13 11:11:34;;;;;;;1.83;1.08;;;;;;;;;;5115316;28;20028;-58
2023/12/13 11:14:01;;;;;;;1.58;1.08;;;;;;;;;;5114762;28;20114;-58
2023/12/13 11:16:28;;;;;;;2.05;0.88;;;;;;;;;;5114779;28;20032;-59
2023/12/13 11:18:57;;;;;;;1.95;1.00;;;;;;;;;;5114735;28;20028;-58
2023/12/13 11:21:26;;;;;;;1.52;0.93;;;;;;;;;;5115211;28;20060;-59
2023/12/13 11:23:53;;;;;;;2.10;1.17;;;;;;;;;;5114600;28;20445;-58
2023/12/13 11:26:25;;;;;;;1.73;0.88;;;;;;;;;;5114989;28;20300;-58
2023/12/13 11:28:52;;;;;;;2.28;1.38;;;;;;;;;;5115106;28;20445;-58
2023/12/13 11:31:22;;;;;;;3.10;1.15;;;;;;;;;;5096355;28;20028;-59
2023/12/13 11:33:54;;;;;;;3.50;1.17;;;;;;;;;;5114511;28;20064;-59
2023/12/13 11:36:23;;;;;;;2.00;0.80;;;;;;;;;;5114478;28;20027;-58
2023/12/13 11:38:50;;;;;;;1.20;0.63;;;;;;;;;;5114986;28;20028;-58
2023/12/13 11:41:16;;;;;;;3.22;1.25;;;;;;;;;;5114386;28;20031;-58
2023/12/13 11:43:43;;;;;;;3.35;1.23;;;;;;;;;;5096014;28;20036;-59
2023/12/13 11:46:09;;;;;;;2.03;0.73;;;;;;;;;;5114344;28;20038;-58
2023/12/13 11:48:36;;;;;;;2.33;0.85;;;;;;;;;;5115152;28;20016;-58
2023/12/13 11:51:01;;;;;;;5.43;1.05;;;;;;;;;;5114543;28;20360;-59
2023/12/13 11:53:32;;;;;;;2.97;1.42;;;;;;;;;;5114819;28;20034;-57
2023/12/13 11:55:58;;;;;;;3.25;1.58;;;;;;;;;;5114678;28;20054;-57
2023/12/13 11:58:27;;;;;;;2.83;0.90;;;;;;;;;;5114664;28;20501;-57
2023/12/13 12:00:53;;;;;;;1.92;0.73;;;;;;;;;;5115002;28;20020;-57
2023/12/13 12:03:19;;;;;;;1.33;0.70;;;;;;;;;;5114175;28;20031;-58
2023/12/13 12:05:47;;;;;;;2.67;0.80;;;;;;;;;;5113753;28;20354;-58
2023/12/13 12:08:12;;;;;;;8.55;1.65;;;;;;;;;;5114462;28;20035;-58
2023/12/13 12:10:41;;;;;;;5.22;0.95;;;;;;;;;;5114443;28;20077;-58
2023/12/13 12:13:07;;;;;;;1.55;0.70;;;;;;;;;;5113932;28;20374;-57
2023/12/13 12:15:32;;;;;;;2.47;0.93;;;;;;;;;;5113953;28;20105;-57
2023/12/13 12:17:59;;;;;;;2.22;0.90;;;;;;;;;;5114553;28;20023;-57
2023/12/13 12:20:26;;;;;;;1.83;0.95;;;;;;;;;;5113937;28;20475;-57
2023/12/13 12:22:52;;;;;;;2.15;0.70;;;;;;;;;;5113957;28;20118;-58
2023/12/13 12:25:20;;;;;;;2.10;0.93;;;;;;;;;;5113742;28;20090;-58
2023/12/13 12:27:49;;;;;;;2.22;0.93;;;;;;;;;;5114837;28;20106;-58
2023/12/13 12:30:19;;;;;;;0.95;0.50;;;;;;;;;;5113937;28;20024;-57
2023/12/13 12:32:45;;;;;;;1.73;0.77;;;;;;;;;;5113562;28;20028;-57
2023/12/13 12:35:11;;;;;;;1.33;0.55;;;;;;;;;;5114326;28;20028;-56
2023/12/13 12:37:37;;;;;;;1.80;0.85;;;;;;;;;;5114516;28;20064;-57
2023/12/13 12:40:06;;;;;;;1.33;0.70;;;;;;;;;;5113843;28;20027;-57
2023/12/13 12:42:32;;;;;;;0.90;0.50;;;;;;;;;;5114329;28;20485;-57
2023/12/13 12:44:58;;;;;;;2.25;0.70;;;;;;;;;;5113720;28;20023;-57
2023/12/13 12:47:24;;;;;;;2.42;0.85;;;;;;;;;;5114154;28;20028;-57
2023/12/13 12:49:52;;;;;;;1.25;0.50;;;;;;;;;;5113566;28;20417;-56
2023/12/13 12:52:18;;;;;;;0.70;0.30;;;;;;;;;;5113856;28;20485;-57
2023/12/13 12:54:44;;;;;;;1.55;0.47;;;;;;;;;;5113211;28;20030;-57
2023/12/13 12:57:10;;;;;;;3.45;0.60;;;;;;;;;;5113739;28;20138;-58
2023/12/13 12:59:36;;;;;;;0.85;0.35;;;;;;;;;;5113595;28;20116;-57
2023/12/13 13:02:03;;;;;;;1.40;0.52;;;;;;;;;;5113798;28;20027;-57
2023/12/13 13:04:29;;;;;;;1.15;0.40;;;;;;;;;;5113260;28;20522;-57
2023/12/13 13:06:56;;;;;;;1.15;0.38;;;;;;;;;;5113716;28;20101;-57
2023/12/13 13:09:21;;;;;;;1.10;0.50;;;;;;;;;;5113585;28;20024;-58
2023/12/13 13:11:47;;;;;;;3.58;0.22;;;;;;;;;;5117429;28;20107;-57
2023/12/13 13:14:13;;;;;;;0.57;0.30;;;;;;;;;;5116861;28;20417;-58
2023/12/13 13:16:39;;;;;;;0.77;0.38;;;;;;;;;;5117682;28;20027;-58
2023/12/13 13:19:05;;;;;;;1.23;0.60;;;;;;;;;;5117514;28;20107;-57
2023/12/13 13:21:35;;;;;;;4.22;1.05;;;;;;;;;;5117053;28;20461;-56
2023/12/13 13:24:01;;;;;;;1.13;0.52;;;;;;;;;;5117644;28;20042;-57
2023/12/13 13:26:27;;;;;;;1.55;0.70;;;;;;;;;;5116870;28;20407;-58
2023/12/13 13:28:53;;;;;;;1.00;0.40;;;;;;;;;;5117338;28;20383;-58
2023/12/13 13:31:21;;;;;;;1.70;0.73;;;;;;;;;;5117400;28;20396;-58
2023/12/13 13:33:47;;;;;;;0.93;0.30;;;;;;;;;;5117251;28;20039;-57
2023/12/13 13:36:13;;;;;;;2.15;0.88;;;;;;;;;;5116440;28;20032;-59
2023/12/13 13:38:40;;;;;;;1.55;0.65;;;;;;;;;;5117180;28;20030;-58
2023/12/13 13:41:07;;;;;;;0.70;0.32;;;;;;;;;;5117138;28;20051;-59
2023/12/13 13:43:33;;;;;;;2.05;0.80;;;;;;;;;;5116557;28;20058;-58
2023/12/13 13:45:59;;;;;;;2.85;0.65;;;;;;;;;;5116491;28;20035;-58
2023/12/13 13:48:26;;;;;;;0.98;0.32;;;;;;;;;;5117244;28;20399;-58
2023/12/13 13:50:52;;;;;;;1.50;0.55;;;;;;;;;;5115947;28;20473;-59
2023/12/13 13:53:18;;;;;;;1.42;0.57;;;;;;;;;;5116196;28;20031;-58
2023/12/13 13:55:47;;;;;;;1.40;0.60;;;;;;;;;;5115990;28;20043;-59
2023/12/13 13:58:14;;;;;;;2.90;0.63;;;;;;;;;;5116311;28;20032;-58
2023/12/13 14:00:40;;;;;;;1.50;0.73;;;;;;;;;;5116254;28;20028;-59
2023/12/13 14:03:06;;;;;;;1.25;0.52;;;;;;;;;;5116658;28;20031;-56
2023/12/13 14:05:35;;;;;;;1.63;0.70;;;;;;;;;;5115994;28;20031;-58
2023/12/13 14:08:04;;;;;;;0.70;0.32;;;;;;;;;;5116717;28;20097;-58
2023/12/13 14:10:30;;;;;;;0.22;0.13;;;;;;;;;;5116086;28;20114;-58
2023/12/13 14:12:56;;;;;;;0.35;0.20;;;;;;;;;;5116599;28;20027;-58
2023/12/13 14:15:23;;;;;;;1.13;0.30;;;;;;;;;;5116541;28;20036;-58
2023/12/13 14:17:49;;;;;;;0.47;0.22;;;;;;;;;;5116555;28;20036;-58
2023/12/13 14:20:14;;;;;;;2.90;0.25;;;;;;;;;;5115261;28;20454;-58
2023/12/13 14:22:41;;;;;;;0.13;0.08;;;;;;;;;;5115725;28;20023;-58
2023/12/13 14:25:08;;;;;;;1.10;0.13;;;;;;;;;;5115702;28;20523;-59
2023/12/13 14:27:34;;;;;;;0.20;0.10;;;;;;;;;;5115715;28;20118;-58
2023/12/13 14:30:00;;;;;;;0.45;0.20;;;;;;;;;;5115308;28;20059;-58
2023/12/13 14:32:26;;;;;;;0.35;0.20;;;;;;;;;;5115577;28;20027;-59
2023/12/13 14:34:52;;;;;;;1.95;0.30;;;;;;;;;;5115544;28;20569;-58
2023/12/13 14:37:18;;;;;;;0.30;0.10;;;;;;;;;;5116465;28;20027;-58